createdAt,value
2017-05-27T00:01:13.445Z,8.26
2017-05-27T00:03:41.682Z,9.02
2017-05-27T00:06:09.911Z,8.60
2017-05-27T00:08:38.199Z,9.02
2017-05-27T00:11:06.434Z,8.10
2017-05-27T00:13:34.751Z,9.14
2017-05-27T00:16:02.988Z,7.80
2017-05-27T00:18:31.310Z,7.44
2017-05-27T00:20:59.570Z,7.40
2017-05-27T00:23:27.810Z,8.32
2017-05-27T00:25:56.041Z,8.28
2017-05-27T00:28:24.295Z,10.82
2017-05-27T00:30:52.531Z,10.40
2017-05-27T00:33:20.779Z,10.98
2017-05-27T00:35:49.011Z,8.30
2017-05-27T00:38:17.304Z,8.80
2017-05-27T00:40:45.540Z,8.20
2017-05-27T00:43:13.851Z,8.66
2017-05-27T00:45:42.085Z,8.88
2017-05-27T00:48:09.550Z,8.68
2017-05-27T00:50:37.858Z,9.36
2017-05-27T00:53:06.092Z,8.32
2017-05-27T00:55:34.322Z,8.10
2017-05-27T00:58:02.591Z,10.10
2017-05-27T01:00:30.823Z,8.72
2017-05-27T01:02:59.059Z,9.80
2017-05-27T01:05:27.298Z,9.80
2017-05-27T01:07:55.592Z,9.90
2017-05-27T01:10:23.859Z,9.72
2017-05-27T01:12:52.091Z,9.84
2017-05-27T01:15:20.413Z,9.60
2017-05-27T01:17:48.650Z,10.58
2017-05-27T01:20:16.929Z,9.78
2017-05-27T01:22:45.230Z,9.18
2017-05-27T01:25:12.698Z,10.12
2017-05-27T01:27:40.936Z,9.36
2017-05-27T01:30:09.247Z,10.40
2017-05-27T01:32:37.483Z,10.38
2017-05-27T01:35:05.803Z,9.08
2017-05-27T01:37:34.033Z,10.40
2017-05-27T01:40:02.275Z,10.18
2017-05-27T01:42:30.518Z,10.56
2017-05-27T01:44:58.759Z,10.82
2017-05-27T01:47:27.075Z,11.70
2017-05-27T01:49:55.307Z,11.10
2017-05-27T01:52:23.549Z,10.98
2017-05-27T01:54:51.778Z,9.90
2017-05-27T01:57:20.078Z,9.70
2017-05-27T01:59:48.311Z,10.32
2017-05-27T02:02:16.628Z,10.30
2017-05-27T02:04:44.858Z,10.90
2017-05-27T02:07:13.097Z,10.86
2017-05-27T02:09:41.336Z,10.86
2017-05-27T02:12:09.575Z,11.12
2017-05-27T02:14:37.815Z,11.12
2017-05-27T02:17:06.047Z,9.80
2017-05-27T02:19:34.352Z,10.24
2017-05-27T02:22:02.586Z,11.22
2017-05-27T02:24:30.821Z,11.56
2017-05-27T02:26:59.059Z,11.40
2017-05-27T02:29:27.315Z,11.76
2017-05-27T02:31:55.542Z,12.64
2017-05-27T02:34:23.790Z,10.76
2017-05-27T02:36:52.034Z,11.26
2017-05-27T02:39:20.270Z,10.78
2017-05-27T02:41:48.503Z,10.92
2017-05-27T02:44:16.730Z,12.44
2017-05-27T02:46:44.979Z,10.58
2017-05-27T02:49:13.214Z,8.70
2017-05-27T02:51:41.446Z,10.82
2017-05-27T02:54:09.684Z,11.30
2017-05-27T02:56:37.927Z,10.92
2017-05-27T02:59:06.243Z,10.98
2017-05-27T03:01:34.486Z,11.52
2017-05-27T03:04:02.727Z,12.02
2017-05-27T03:06:30.976Z,11.38
2017-05-27T03:08:59.214Z,9.42
2017-05-27T03:11:27.447Z,11.00
2017-05-27T03:13:55.692Z,11.46
2017-05-27T03:16:23.929Z,11.22
2017-05-27T03:18:52.250Z,11.00
2017-05-27T03:21:20.488Z,10.92
2017-05-27T03:23:48.794Z,10.74
2017-05-27T03:26:17.033Z,10.74
2017-05-27T03:28:45.349Z,11.92
2017-05-27T03:31:13.583Z,11.82
2017-05-27T03:33:41.828Z,12.14
2017-05-27T03:36:10.058Z,12.76
2017-05-27T03:38:38.339Z,11.28
2017-05-27T03:41:06.572Z,13.58
2017-05-27T03:43:34.809Z,13.34
2017-05-27T03:46:03.041Z,11.18
2017-05-27T03:48:31.356Z,10.12
2017-05-27T03:50:59.615Z,10.82
2017-05-27T03:53:27.898Z,13.26
2017-05-27T03:55:56.147Z,14.28
2017-05-27T03:58:24.383Z,13.60
2017-05-27T04:00:52.631Z,14.16
2017-05-27T04:03:20.899Z,13.28
2017-05-27T04:05:49.175Z,12.04
2017-05-27T04:08:17.411Z,12.00
2017-05-27T04:10:45.687Z,13.36
2017-05-27T04:13:13.935Z,13.54
2017-05-27T04:15:42.166Z,12.24
2017-05-27T04:18:10.406Z,11.56
2017-05-27T04:20:38.651Z,11.58
2017-05-27T04:23:06.899Z,10.70
2017-05-27T04:25:35.130Z,9.64
2017-05-27T04:28:03.380Z,9.96
2017-05-27T04:30:31.606Z,8.34
2017-05-27T04:32:59.850Z,8.40
2017-05-27T04:35:28.088Z,9.12
2017-05-27T04:37:56.447Z,8.38
2017-05-27T04:40:24.685Z,8.68
2017-05-27T04:42:52.998Z,9.00
2017-05-27T04:45:21.231Z,8.62
2017-05-27T04:47:49.564Z,8.04
2017-05-27T04:50:17.803Z,8.66
2017-05-27T04:52:46.029Z,8.72
2017-05-27T04:55:14.267Z,8.76
2017-05-27T04:57:42.548Z,8.36
2017-05-27T05:00:10.799Z,10.08
2017-05-27T05:02:39.038Z,9.38
2017-05-27T05:05:07.283Z,10.12
2017-05-27T05:07:35.514Z,8.72
2017-05-27T05:10:03.750Z,8.32
2017-05-27T05:12:31.977Z,8.62
2017-05-27T05:15:00.208Z,9.10
2017-05-27T05:17:28.436Z,8.84
2017-05-27T05:19:56.669Z,8.48
2017-05-27T05:22:24.897Z,8.12
2017-05-27T05:24:53.134Z,9.00
2017-05-27T05:27:21.358Z,8.68
2017-05-27T05:29:49.590Z,8.42
2017-05-27T05:32:17.827Z,8.38
2017-05-27T05:34:46.144Z,7.46
2017-05-27T05:37:14.387Z,7.32
2017-05-27T05:39:42.623Z,5.70
2017-05-27T05:42:10.851Z,6.64
2017-05-27T05:44:39.084Z,7.52
2017-05-27T07:32:39.746Z,6.22
2017-05-27T07:35:07.975Z,5.88
2017-05-27T07:37:36.204Z,5.14
2017-05-27T07:40:04.501Z,5.72
2017-05-27T07:42:32.728Z,5.46
2017-05-27T07:45:00.951Z,4.54
2017-05-27T07:47:28.419Z,5.80
2017-05-27T07:49:56.679Z,4.28
2017-05-27T07:52:24.950Z,4.80
2017-05-27T07:54:53.238Z,4.20
2017-05-27T07:57:21.472Z,4.46
2017-05-27T07:59:49.779Z,4.08
2017-05-27T08:04:52.772Z,3.68
2017-05-27T08:07:20.955Z,3.34
2017-05-27T08:09:49.179Z,3.92
2017-05-27T08:12:17.504Z,3.42
2017-05-27T08:14:45.736Z,3.82
2017-05-27T08:17:14.061Z,3.68
2017-05-27T08:19:42.333Z,3.32
2017-05-27T08:22:10.567Z,3.00
2017-05-27T08:24:38.891Z,3.62
2017-05-27T08:27:06.347Z,2.50
2017-05-27T08:29:34.585Z,2.80
2017-05-27T08:32:08.387Z,2.30
2017-05-27T08:34:42.400Z,3.28
2017-05-27T08:37:10.622Z,2.42
2017-05-27T08:39:38.882Z,2.76
2017-05-27T08:42:07.149Z,2.34
2017-05-27T08:44:35.435Z,2.52
2017-05-27T08:47:03.661Z,2.58
2017-05-27T08:49:31.127Z,2.16
2017-05-27T08:51:59.365Z,3.04
2017-05-27T08:54:27.600Z,2.32
2017-05-27T08:56:55.822Z,1.76
2017-05-27T08:59:24.053Z,1.90
2017-05-27T09:01:52.278Z,2.12
2017-05-27T09:04:20.506Z,1.88
2017-05-27T09:06:48.791Z,2.38
2017-05-27T09:09:17.019Z,2.08
2017-05-27T09:11:45.338Z,2.12
2017-05-27T09:14:13.619Z,2.04
2017-05-27T09:16:41.846Z,2.02
2017-05-27T09:19:10.068Z,2.14
2017-05-27T09:21:38.294Z,2.02
2017-05-27T09:24:05.756Z,1.94
2017-05-27T09:26:34.063Z,2.46
2017-05-27T09:29:02.297Z,2.08
2017-05-27T09:31:30.518Z,1.90
2017-05-27T09:33:58.759Z,1.98
2017-05-27T09:36:26.992Z,2.28
2017-05-27T09:38:55.343Z,1.96
2017-05-27T09:41:23.614Z,2.08
2017-05-27T09:43:51.895Z,2.50
2017-05-27T09:46:20.120Z,2.08
2017-05-27T09:48:48.344Z,1.78
2017-05-27T09:51:16.625Z,2.50
2017-05-27T09:53:45.120Z,1.72
2017-05-27T09:56:13.374Z,2.26
2017-05-27T09:58:41.610Z,2.52
2017-05-27T10:01:09.839Z,2.20
2017-05-27T10:03:38.066Z,2.00
2017-05-27T10:06:06.288Z,2.10
2017-05-27T10:08:34.518Z,1.94
2017-05-27T10:11:02.755Z,2.02
2017-05-27T10:13:30.986Z,1.84
2017-05-27T10:15:59.220Z,2.34
2017-05-27T10:18:27.451Z,2.16
2017-05-27T10:20:55.718Z,1.98
2017-05-27T10:23:24.019Z,2.10
2017-05-27T10:25:52.241Z,2.20
2017-05-27T10:28:20.466Z,2.18
2017-05-27T10:30:48.695Z,2.08
2017-05-27T10:33:16.927Z,1.90
2017-05-27T10:35:45.172Z,2.00
2017-05-27T10:38:13.403Z,1.80
2017-05-27T10:40:41.623Z,2.22
2017-05-27T10:43:09.852Z,1.78
2017-05-27T10:45:38.075Z,1.76
2017-05-27T10:48:06.826Z,1.72
2017-05-27T10:50:35.057Z,1.60
2017-05-27T10:53:03.290Z,1.40
2017-05-27T10:55:31.514Z,1.40
2017-05-27T10:57:59.783Z,1.84
2017-05-27T11:00:28.023Z,2.16
2017-05-27T11:02:56.248Z,1.62
2017-05-27T11:05:23.746Z,1.66
2017-05-27T11:07:51.970Z,1.32
2017-05-27T11:10:20.301Z,1.52
2017-05-27T11:12:48.534Z,1.48
2017-05-27T11:15:16.756Z,1.82
2017-05-27T11:17:44.983Z,1.60
2017-05-27T11:20:13.214Z,1.58
2017-05-27T11:22:41.491Z,1.80
2017-05-27T11:25:09.723Z,1.80
2017-05-27T11:27:38.026Z,1.58
2017-05-27T11:30:06.511Z,1.22
2017-05-27T11:32:34.786Z,1.28
2017-05-27T11:35:03.013Z,1.28
2017-05-27T11:37:31.244Z,1.48
2017-05-27T11:39:59.511Z,1.42
2017-05-27T11:42:27.739Z,1.62
2017-05-27T11:44:55.962Z,1.76
2017-05-27T11:47:24.231Z,1.38
2017-05-27T11:49:52.463Z,1.20
2017-05-27T11:52:20.703Z,1.22
2017-05-27T11:54:48.938Z,1.26
2017-05-27T11:57:17.170Z,1.18
2017-05-27T11:59:45.398Z,1.08
2017-05-27T12:02:13.682Z,1.00
2017-05-27T12:04:41.908Z,1.20
2017-05-27T12:07:10.137Z,1.30
2017-05-27T12:09:38.367Z,1.20
2017-05-27T12:12:06.595Z,1.30
2017-05-27T12:14:34.831Z,1.32
2017-05-27T12:17:03.058Z,1.20
2017-05-27T12:19:31.298Z,1.32
2017-05-27T12:21:59.523Z,1.30
2017-05-27T12:24:27.755Z,1.86
2017-05-27T12:26:55.978Z,1.40
2017-05-27T12:29:24.291Z,1.20
2017-05-27T12:31:52.514Z,1.30
2017-05-27T12:34:20.747Z,1.46
2017-05-27T12:36:49.028Z,1.20
2017-05-27T12:39:17.259Z,1.60
2017-05-27T12:41:45.486Z,1.60
2017-05-27T12:44:13.755Z,1.60
2017-05-27T12:46:41.983Z,1.40
2017-05-27T12:49:10.212Z,1.42
2017-05-27T12:51:38.471Z,1.30
2017-05-27T12:54:06.742Z,1.20
2017-05-27T12:56:34.969Z,1.40
2017-05-27T12:59:03.303Z,1.30
2017-05-27T13:01:31.550Z,1.40
2017-05-27T13:03:59.774Z,1.46
2017-05-27T13:06:28.011Z,1.50
2017-05-27T13:08:56.235Z,1.60
2017-05-27T13:11:24.462Z,1.40
2017-05-27T13:13:52.749Z,1.50
2017-05-27T13:16:21.021Z,1.30
2017-05-27T13:18:49.256Z,1.40
2017-05-27T13:21:17.490Z,1.62
2017-05-27T13:23:45.724Z,1.68
2017-05-27T13:26:14.026Z,1.46
2017-05-27T13:28:42.256Z,1.52
2017-05-27T13:31:10.482Z,1.44
2017-05-27T13:33:38.743Z,1.54
2017-05-27T13:36:07.024Z,1.50
2017-05-27T13:38:35.248Z,1.30
2017-05-27T13:41:02.705Z,1.60
2017-05-27T13:43:30.938Z,1.32
2017-05-27T13:45:59.173Z,1.30
2017-05-27T13:48:27.402Z,1.20
2017-05-27T13:50:55.631Z,1.60
2017-05-27T13:53:23.920Z,1.60
2017-05-27T13:55:52.205Z,1.50
2017-05-27T13:58:20.435Z,1.94
2017-05-27T14:00:48.671Z,1.56
2017-05-27T14:03:16.928Z,1.38
2017-05-27T14:05:45.153Z,1.54
2017-05-27T14:08:13.383Z,1.46
2017-05-27T14:10:41.622Z,1.74
2017-05-27T14:13:09.854Z,1.80
2017-05-27T14:15:38.202Z,1.30
2017-05-27T14:18:06.418Z,1.80
2017-05-27T14:20:34.654Z,1.52
2017-05-27T14:23:02.880Z,1.60
2017-05-27T14:25:31.202Z,1.70
2017-05-27T14:27:59.430Z,1.60
2017-05-27T14:30:27.654Z,1.46
2017-05-27T14:32:55.879Z,1.58
2017-05-27T14:35:24.108Z,1.72
2017-05-27T14:37:52.335Z,1.50
2017-05-27T14:40:20.920Z,1.62
2017-05-27T14:42:49.234Z,1.98
2017-05-27T14:45:17.461Z,1.50
2017-05-27T14:47:44.928Z,1.64
2017-05-27T14:50:13.151Z,1.58
2017-05-27T14:52:41.384Z,1.64
2017-05-27T14:55:09.615Z,1.74
2017-05-27T14:57:37.865Z,1.46
2017-05-27T15:00:06.099Z,1.80
2017-05-27T15:02:34.325Z,1.82
2017-05-27T15:05:02.546Z,1.52
2017-05-27T15:07:30.775Z,1.80
2017-05-27T15:09:59.004Z,1.66
2017-05-27T15:12:27.233Z,1.66
2017-05-27T15:14:55.483Z,1.84
2017-05-27T15:17:23.714Z,1.62
2017-05-27T15:19:52.036Z,1.72
2017-05-27T15:22:20.315Z,1.80
2017-05-27T15:24:48.551Z,1.80
2017-05-27T15:27:16.780Z,2.70
2017-05-27T15:29:45.011Z,1.50
2017-05-27T15:32:13.239Z,1.82
2017-05-27T15:34:41.589Z,2.52
2017-05-27T15:37:09.866Z,2.10
2017-05-27T15:39:38.091Z,1.70
2017-05-27T15:42:06.314Z,1.56
2017-05-27T15:44:34.607Z,1.52
2017-05-27T15:47:02.791Z,1.76
2017-05-27T15:49:31.015Z,1.98
2017-05-27T15:51:59.247Z,1.70
2017-05-27T15:54:27.467Z,1.68
2017-05-27T15:56:55.711Z,2.04
2017-05-27T15:59:23.942Z,1.50
2017-05-27T16:01:52.171Z,2.06
2017-05-27T16:04:20.402Z,1.96
2017-05-27T16:06:48.655Z,1.60
2017-05-27T16:09:16.934Z,1.22
2017-05-27T16:11:45.212Z,1.62
2017-05-27T16:14:13.483Z,1.82
2017-05-27T16:16:41.715Z,1.96
2017-05-27T16:19:09.935Z,1.66
2017-05-27T16:21:38.199Z,1.88
2017-05-27T16:24:06.436Z,1.68
2017-05-27T16:26:34.759Z,2.02
2017-05-27T16:29:02.985Z,1.66
2017-05-27T16:31:31.306Z,1.50
2017-05-27T16:33:59.541Z,1.60
2017-05-27T16:36:27.858Z,1.68
2017-05-27T16:38:56.092Z,2.02
2017-05-27T16:41:24.314Z,1.54
2017-05-27T16:43:52.550Z,1.80
2017-05-27T16:46:20.779Z,1.56
2017-05-27T16:48:48.994Z,1.70
2017-05-27T16:51:17.307Z,1.32
2017-05-27T16:53:44.775Z,1.60
2017-05-27T16:56:13.132Z,1.66
2017-05-27T16:58:41.415Z,1.46
2017-05-27T17:01:09.691Z,1.48
2017-05-27T17:03:37.932Z,1.32
2017-05-27T17:06:06.153Z,2.40
2017-05-27T17:08:34.376Z,1.60
2017-05-27T17:11:02.607Z,2.08
2017-05-27T17:13:30.836Z,1.70
2017-05-27T17:15:59.063Z,1.60
2017-05-27T17:18:27.312Z,2.50
2017-05-27T17:20:55.543Z,1.66
2017-05-27T17:23:23.775Z,1.44
2017-05-27T17:25:52.035Z,1.64
2017-05-27T17:28:20.268Z,1.84
2017-05-27T17:30:48.495Z,1.66
2017-05-27T17:33:16.724Z,1.64
2017-05-27T17:35:44.951Z,1.50
2017-05-27T17:38:13.184Z,2.42
2017-05-27T17:40:41.486Z,1.56
2017-05-27T17:43:09.719Z,2.54
2017-05-27T17:45:37.951Z,1.72
2017-05-27T17:48:06.180Z,1.50
2017-05-27T17:50:34.408Z,1.80
2017-05-27T17:53:02.628Z,1.96
2017-05-27T17:55:30.866Z,1.76
2017-05-27T17:57:59.100Z,1.84
2017-05-27T18:00:27.330Z,1.84
2017-05-27T18:02:55.558Z,2.34
2017-05-27T18:05:23.786Z,1.86
2017-05-27T18:07:51.285Z,1.60
2017-05-27T18:10:19.509Z,2.16
2017-05-27T18:12:47.831Z,1.98
2017-05-27T18:15:16.063Z,2.38
2017-05-27T18:17:44.288Z,2.08
2017-05-27T18:20:12.525Z,2.06
2017-05-27T18:22:40.752Z,1.96
2017-05-27T18:25:08.978Z,1.92
2017-05-27T18:27:37.236Z,1.74
2017-05-27T18:30:05.555Z,2.04
2017-05-27T18:32:33.791Z,2.12
2017-05-27T18:35:02.010Z,1.80
2017-05-27T18:37:30.239Z,1.80
2017-05-27T18:39:58.546Z,2.00
2017-05-27T18:42:26.781Z,1.84
2017-05-27T18:44:55.099Z,1.68
2017-05-27T18:47:23.330Z,2.22
2017-05-27T18:49:51.555Z,2.32
2017-05-27T18:52:19.786Z,2.28
2017-05-27T18:54:48.105Z,3.18
2017-05-27T18:57:16.340Z,2.20
2017-05-27T18:59:44.655Z,1.96
2017-05-27T19:02:12.882Z,1.90
2017-05-27T19:04:41.203Z,2.32
2017-05-27T19:07:09.422Z,2.10
2017-05-27T19:09:37.660Z,1.92
2017-05-27T19:12:05.935Z,2.42
2017-05-27T19:14:34.199Z,2.10
2017-05-27T19:17:02.422Z,2.20
2017-05-27T19:19:30.663Z,2.06
2017-05-27T19:21:58.915Z,1.90
2017-05-27T19:24:27.204Z,1.82
2017-05-27T19:26:55.438Z,1.90
2017-05-27T19:29:23.725Z,1.90
2017-05-27T19:31:51.911Z,2.04
2017-05-27T19:34:20.134Z,2.00
2017-05-27T19:36:48.358Z,1.88
2017-05-27T19:39:16.651Z,1.98
2017-05-27T19:41:44.935Z,2.32
2017-05-27T19:44:13.159Z,2.48
2017-05-27T19:46:41.471Z,2.08
2017-05-27T19:49:09.727Z,2.04
2017-05-27T19:51:38.039Z,2.60
2017-05-27T19:54:05.495Z,3.08
2017-05-27T19:56:33.727Z,2.30
2017-05-27T19:59:02.043Z,2.46
2017-05-27T20:01:30.271Z,2.16
2017-05-27T20:03:58.587Z,2.52
2017-05-27T20:06:26.816Z,2.22
2017-05-27T20:08:55.059Z,2.62
2017-05-27T20:11:23.280Z,2.36
2017-05-27T20:13:51.591Z,2.34
2017-05-27T20:16:19.851Z,2.62
2017-05-27T20:18:48.139Z,2.44
2017-05-27T20:21:16.366Z,2.00
2017-05-27T20:23:44.594Z,1.72
2017-05-27T20:26:12.828Z,2.10
2017-05-27T20:28:41.059Z,2.32
2017-05-27T20:31:09.293Z,2.46
2017-05-27T20:33:37.583Z,2.36
2017-05-27T20:36:05.813Z,2.64
2017-05-27T20:38:34.041Z,3.04
2017-05-27T20:41:02.280Z,2.88
2017-05-27T20:43:30.507Z,2.92
2017-05-27T20:45:58.751Z,2.98
2017-05-27T20:48:27.026Z,2.70
2017-05-27T20:50:55.258Z,2.94
2017-05-27T20:53:23.483Z,3.50
2017-05-27T20:55:51.759Z,3.84
2017-05-27T20:58:20.035Z,2.66
2017-05-27T21:00:48.264Z,3.68
2017-05-27T21:03:16.492Z,3.34
2017-05-27T21:05:44.714Z,4.58
2017-05-27T21:08:12.943Z,3.84
2017-05-27T21:10:41.176Z,3.44
2017-05-27T21:13:09.400Z,3.44
2017-05-27T21:15:37.627Z,2.92
2017-05-27T21:18:05.859Z,3.98
2017-05-27T21:20:34.081Z,4.02
2017-05-27T21:23:02.323Z,4.12
2017-05-27T21:25:30.559Z,3.18
2017-05-27T21:27:58.841Z,4.20
2017-05-27T21:30:27.063Z,5.06
2017-05-27T21:32:55.293Z,3.90
2017-05-27T21:35:23.522Z,3.66
2017-05-27T21:37:51.751Z,4.44
2017-05-27T21:40:19.978Z,4.64
2017-05-27T21:42:48.207Z,4.68
2017-05-27T21:45:16.434Z,4.10
2017-05-27T21:47:44.725Z,3.82
2017-05-27T21:50:12.966Z,3.86
2017-05-27T21:52:41.194Z,3.68
2017-05-27T21:55:09.423Z,3.02
2017-05-27T21:57:37.662Z,3.70
2017-05-27T22:02:39.098Z,4.48
2017-05-27T22:05:07.324Z,4.32
2017-05-27T22:07:35.635Z,5.38
2017-05-27T22:10:03.914Z,3.92
2017-05-27T22:12:32.142Z,4.12
2017-05-27T22:15:00.358Z,4.48
2017-05-27T22:17:28.610Z,4.80
2017-05-27T22:19:56.843Z,4.52
2017-05-27T22:22:25.067Z,4.22
2017-05-27T22:24:53.567Z,4.68
2017-05-27T22:27:21.847Z,6.48
2017-05-27T22:29:50.074Z,4.82
2017-05-27T22:32:18.399Z,4.54
2017-05-27T22:34:46.617Z,4.80
2017-05-27T22:37:14.846Z,5.12
2017-05-27T22:39:43.084Z,5.00
2017-05-27T22:42:11.319Z,4.82
2017-05-27T22:44:39.559Z,5.38
2017-05-27T22:47:07.791Z,5.08
2017-05-27T22:49:36.034Z,5.00
2017-05-27T22:52:04.264Z,4.64
2017-05-27T22:54:32.554Z,5.22
2017-05-27T22:57:00.844Z,5.50
2017-05-27T22:59:29.075Z,5.18
2017-05-27T23:01:57.300Z,5.54
2017-05-27T23:04:25.526Z,5.72
2017-05-27T23:06:53.759Z,5.84
2017-05-27T23:09:21.991Z,5.48
2017-05-27T23:11:50.223Z,5.50
2017-05-27T23:14:18.459Z,5.68
2017-05-27T23:16:46.699Z,5.72
2017-05-27T23:19:14.922Z,5.60
2017-05-27T23:21:43.152Z,4.94
2017-05-27T23:24:11.455Z,5.32
2017-05-27T23:26:39.691Z,5.78
2017-05-27T23:29:07.911Z,6.32
2017-05-27T23:31:36.184Z,5.68
2017-05-27T23:34:04.411Z,5.18
2017-05-27T23:36:32.640Z,5.40
2017-05-27T23:39:00.873Z,5.34
2017-05-27T23:41:29.099Z,5.62
2017-05-27T23:43:57.451Z,5.00
2017-05-27T23:46:25.683Z,6.24
2017-05-27T23:48:53.920Z,5.72
2017-05-27T23:51:22.151Z,5.60
2017-05-27T23:53:50.460Z,7.10
2017-05-27T23:56:18.695Z,9.20
2017-05-27T23:58:47.007Z,7.94
